Time;durP1;ratioP1;P1;durP2;ratioP2;P2;SDS_P1;SDS_P2;PMS_P1;PMS_P2;Temp;Humidity;BMP_temperature;BMP_pressure;BME280_temperature;BME280_humidity;BME280_pressure;Samples;Min_cycle;Max_cycle;Signal;HPM_P1;HPM_P2
2024/03/06 00:00:10;;;;;;;3.97;2.07;;;;;;;6.44;79.55;95558.97;5024635;28;20244;-81
2024/03/06 00:02:36;;;;;;;4.63;2.63;;;;;;;6.45;79.78;95563.22;5022910;28;20323;-81
2024/03/06 00:05:01;;;;;;;8.43;3.13;;;;;;;6.44;79.73;95557.22;5022946;28;20361;-81
2024/03/06 00:07:27;;;;;;;6.07;2.87;;;;;;;6.42;79.66;95564.28;5022841;28;20221;-81
2024/03/06 00:09:53;;;;;;;4.33;2.87;;;;;;;6.46;79.67;95560.53;5012470;28;20297;-82
2024/03/06 00:12:18;;;;;;;3.87;2.80;;;;;;;6.49;79.74;95569.78;5013279;28;20258;-81
2024/03/06 00:14:44;;;;;;;5.63;3.50;;;;;;;6.44;79.61;95577.84;5005691;28;20214;-81
2024/03/06 00:17:09;;;;;;;3.90;2.93;;;;;;;6.35;80.10;95575.19;5015635;28;20407;-81
2024/03/06 00:19:35;;;;;;;3.87;2.90;;;;;;;6.34;80.24;95565.81;5023640;28;20187;-81
2024/03/06 00:22:01;;;;;;;3.90;2.90;;;;;;;6.31;79.96;95569.47;5023663;28;20640;-80
2024/03/06 00:24:26;;;;;;;4.63;2.70;;;;;;;6.36;79.92;95581.97;5014911;28;20672;-80
2024/03/06 00:26:51;;;;;;;4.87;2.97;;;;;;;6.31;79.93;95576.38;5018683;28;20246;-81
2024/03/06 00:29:17;;;;;;;3.20;2.70;;;;;;;6.36;80.14;95579.41;5010488;28;20284;-80
2024/03/06 00:31:43;;;;;;;5.83;2.90;;;;;;;6.40;79.71;95581.63;5020875;28;20192;-80
2024/03/06 00:34:10;;;;;;;4.70;2.60;;;;;;;6.34;80.29;95579.53;5017643;28;20187;-80
2024/03/06 00:36:35;;;;;;;4.80;2.63;;;;;;;6.34;80.31;95574.38;5019517;28;20187;-81
2024/03/06 00:39:01;;;;;;;4.57;2.70;;;;;;;6.34;79.99;95576.94;5023103;28;20742;-79
2024/03/06 00:41:26;;;;;;;4.60;2.40;;;;;;;6.34;79.81;95571.78;5014739;28;20221;-80
2024/03/06 00:43:51;;;;;;;3.43;2.60;;;;;;;6.28;80.23;95572.28;5008028;28;20301;-80
2024/03/06 00:46:17;;;;;;;4.40;2.60;;;;;;;6.24;80.27;95570.88;5011456;28;20257;-80
2024/03/06 00:48:42;;;;;;;2.83;2.40;;;;;;;6.24;80.09;95566.53;5017936;28;20210;-80
2024/03/06 00:51:07;;;;;;;4.30;2.83;;;;;;;6.22;80.19;95565.03;5000316;28;20667;-79
2024/03/06 00:53:34;;;;;;;3.20;2.10;;;;;;;6.22;80.38;95562.44;5004487;28;20182;-80
2024/03/06 00:56:00;;;;;;;4.00;2.60;;;;;;;6.17;80.36;95564.56;5022488;28;20586;-81
2024/03/06 00:58:25;;;;;;;6.33;2.73;;;;;;;6.16;80.37;95568.91;5018602;28;20195;-81
2024/03/06 01:00:50;;;;;;;6.20;2.90;;;;;;;6.13;80.33;95565.75;5023861;28;20190;-80
2024/03/06 01:03:15;;;;;;;3.50;2.37;;;;;;;6.12;80.55;95567.50;5023015;28;20277;-80
2024/03/06 01:05:42;;;;;;;6.80;2.57;;;;;;;6.11;80.35;95571.03;5007396;28;20222;-80
2024/03/06 01:08:07;;;;;;;6.93;2.60;;;;;;;6.09;80.61;95567.72;5007454;28;20676;-80
2024/03/06 01:10:32;;;;;;;3.53;2.40;;;;;;;6.08;80.61;95570.44;5018570;28;20187;-80
2024/03/06 01:12:58;;;;;;;3.47;2.97;;;;;;;6.00;80.93;95565.88;5012591;28;20249;-80
2024/03/06 01:15:23;;;;;;;4.60;2.30;;;;;;;5.99;80.98;95573.72;5015407;28;20827;-81
2024/03/06 01:17:50;;;;;;;3.67;2.20;;;;;;;5.94;80.86;95577.50;5010933;28;20202;-80
2024/03/06 01:20:15;;;;;;;4.27;2.20;;;;;;;5.91;80.60;95575.13;5007363;28;20726;-80
2024/03/06 01:22:41;;;;;;;3.30;1.83;;;;;;;5.88;80.73;95577.94;5019877;28;20187;-80
2024/03/06 01:25:07;;;;;;;4.03;2.40;;;;;;;5.86;80.96;95576.41;5016303;28;20280;-80
2024/03/06 01:27:32;;;;;;;4.97;2.00;;;;;;;5.84;80.99;95586.03;5023479;28;20204;-80
2024/03/06 01:29:57;;;;;;;3.60;2.10;;;;;;;5.84;80.72;95579.13;5021197;28;20556;-81
2024/03/06 01:32:23;;;;;;;1.90;1.80;;;;;;;5.80;81.05;95580.28;5019425;28;20190;-80
2024/03/06 01:34:48;;;;;;;3.40;2.03;;;;;;;5.84;80.80;95584.28;5018853;28;20203;-80
2024/03/06 01:37:14;;;;;;;3.57;2.10;;;;;;;5.78;81.23;95582.16;5014845;28;20187;-80
2024/03/06 01:39:39;;;;;;;4.40;2.60;;;;;;;5.80;81.10;95587.19;5012598;28;20612;-79
2024/03/06 01:42:04;;;;;;;4.10;2.10;;;;;;;5.85;80.98;95575.59;5016783;28;20215;-80
2024/03/06 01:44:30;;;;;;;2.90;2.00;;;;;;;5.81;81.27;95589.63;5004291;28;20215;-80
2024/03/06 01:46:55;;;;;;;2.77;2.43;;;;;;;5.84;81.04;95597.16;5008085;28;20198;-79
2024/03/06 01:49:21;;;;;;;5.50;2.50;;;;;;;5.89;80.95;95594.22;5010551;28;20626;-80
2024/03/06 01:51:52;;;;;;;4.20;2.60;;;;;;;5.88;81.47;95590.81;5017051;28;20198;-80
2024/03/06 01:54:18;;;;;;;3.83;2.50;;;;;;;5.89;81.42;95582.13;5019083;28;20680;-81
2024/03/06 01:56:45;;;;;;;6.30;2.87;;;;;;;5.89;81.59;95579.56;5006201;28;20182;-80
2024/03/06 01:59:12;;;;;;;5.83;2.60;;;;;;;5.88;81.68;95580.50;5019997;28;20214;-80
2024/03/06 02:01:37;;;;;;;5.63;3.07;;;;;;;5.87;81.79;95578.88;5001625;28;20720;-80
2024/03/06 02:04:02;;;;;;;4.47;3.23;;;;;;;5.90;81.58;95572.66;5019402;28;20202;-80
2024/03/06 02:06:28;;;;;;;4.40;2.80;;;;;;;5.92;81.70;95579.38;5016926;28;20211;-80
2024/03/06 02:08:53;;;;;;;4.67;3.30;;;;;;;5.90;81.55;95583.81;5007576;28;20277;-80
2024/03/06 02:11:18;;;;;;;5.20;2.77;;;;;;;5.93;81.69;95575.03;5018187;28;20268;-80
2024/03/06 02:13:44;;;;;;;4.37;2.67;;;;;;;5.89;81.93;95571.84;5017244;28;20183;-80
2024/03/06 02:16:10;;;;;;;4.27;3.00;;;;;;;5.93;81.75;95572.47;5019070;28;20596;-79
2024/03/06 02:18:36;;;;;;;5.50;3.37;;;;;;;5.88;82.10;95577.94;5003839;28;20183;-80
2024/03/06 02:21:02;;;;;;;4.43;2.87;;;;;;;5.89;82.23;95578.75;5025397;28;20273;-81
2024/03/06 02:23:27;;;;;;;5.17;2.80;;;;;;;5.95;81.82;95576.56;5003988;28;20215;-80
2024/03/06 02:25:53;;;;;;;5.03;2.90;;;;;;;5.91;81.70;95579.47;5022084;28;20232;-81
2024/03/06 02:28:18;;;;;;;4.57;3.40;;;;;;;5.90;81.94;95568.34;5009370;28;20325;-80
2024/03/06 02:30:44;;;;;;;5.47;3.20;;;;;;;5.90;81.75;95572.66;5019170;28;20187;-80
2024/03/06 02:33:09;;;;;;;4.53;2.83;;;;;;;5.91;81.57;95566.59;5017574;28;20339;-80
2024/03/06 02:35:39;;;;;;;6.63;3.30;;;;;;;5.83;82.11;95574.91;4999340;28;20211;-80
2024/03/06 02:38:05;;;;;;;4.77;3.23;;;;;;;5.88;82.12;95575.34;5020639;28;20178;-80
2024/03/06 02:40:31;;;;;;;8.17;3.33;;;;;;;5.86;82.24;95586.72;5011287;28;20215;-80
2024/03/06 02:42:56;;;;;;;7.30;3.60;;;;;;;5.88;82.04;95588.25;5018371;28;20237;-81
2024/03/06 02:45:22;;;;;;;5.77;3.00;;;;;;;5.84;82.45;95583.44;5021208;28;20218;-80
2024/03/06 02:47:47;;;;;;;5.87;3.33;;;;;;;5.84;82.45;95594.59;5009685;28;20182;-80
2024/03/06 02:50:13;;;;;;;5.33;3.33;;;;;;;5.86;82.29;95592.69;5023389;28;20179;-80
2024/03/06 02:52:39;;;;;;;7.83;3.50;;;;;;;5.92;82.30;95592.28;5019395;28;20195;-80
2024/03/06 02:55:05;;;;;;;5.17;3.20;;;;;;;5.89;82.36;95602.75;5013343;28;20232;-80
2024/03/06 02:57:30;;;;;;;5.13;3.20;;;;;;;5.83;82.67;95603.25;5024955;28;20641;-80
2024/03/06 02:59:57;;;;;;;3.97;3.07;;;;;;;5.96;82.29;95601.38;5005180;28;20195;-80
2024/03/06 03:02:23;;;;;;;7.23;3.60;;;;;;;6.02;82.13;95601.88;5011097;28;20179;-80
2024/03/06 03:04:49;;;;;;;4.23;3.43;;;;;;;5.95;82.23;95597.19;5021336;28;20218;-81
2024/03/06 03:07:14;;;;;;;6.20;3.60;;;;;;;5.90;82.48;95603.56;5009476;28;20190;-80
2024/03/06 03:09:39;;;;;;;9.97;3.43;;;;;;;5.93;82.26;95596.47;5006401;28;20198;-81
2024/03/06 03:12:05;;;;;;;5.90;3.57;;;;;;;5.96;82.19;95590.25;5013357;28;20178;-80
2024/03/06 03:14:31;;;;;;;6.00;3.40;;;;;;;5.90;82.23;95594.13;5019606;28;20207;-80
2024/03/06 03:16:56;;;;;;;4.83;3.47;;;;;;;5.96;81.82;95592.84;5014663;28;20190;-80
2024/03/06 03:19:22;;;;;;;7.33;4.00;;;;;;;5.99;81.81;95584.84;5020555;28;20194;-80
2024/03/06 03:21:47;;;;;;;5.77;3.93;;;;;;;5.99;81.53;95589.19;5017736;28;20187;-80
2024/03/06 03:24:12;;;;;;;8.53;4.13;;;;;;;6.00;81.86;95585.69;5005740;28;20641;-80
2024/03/06 03:26:38;;;;;;;6.67;4.00;;;;;;;5.94;81.64;95592.16;5002987;28;20230;-80
2024/03/06 03:29:03;;;;;;;6.03;4.60;;;;;;;5.95;81.58;95581.72;5008602;28;20190;-80
2024/03/06 03:31:28;;;;;;;9.87;4.60;;;;;;;5.94;81.51;95592.16;5018925;28;20557;-80
2024/03/06 03:33:54;;;;;;;7.00;4.13;;;;;;;5.95;81.28;95592.03;5020804;28;20187;-81
2024/03/06 03:36:19;;;;;;;6.57;4.17;;;;;;;5.91;81.04;95589.78;5003736;28;20242;-80
2024/03/06 03:38:44;;;;;;;8.60;3.87;;;;;;;5.95;81.33;95602.34;5021319;28;20202;-80
2024/03/06 03:41:12;;;;;;;7.30;4.57;;;;;;;5.84;81.12;95593.75;5005233;28;20202;-80
2024/03/06 03:43:39;;;;;;;7.37;5.03;;;;;;;5.83;81.31;95597.25;5019279;28;20289;-81
2024/03/06 03:46:04;;;;;;;8.47;5.37;;;;;;;5.83;80.95;95598.09;5008419;28;20210;-80
2024/03/06 03:48:31;;;;;;;11.87;5.30;;;;;;;5.81;80.52;95594.78;5021051;28;20195;-80
2024/03/06 03:50:56;;;;;;;7.00;4.80;;;;;;;5.85;80.30;95596.22;5014088;28;20191;-80
2024/03/06 03:53:21;;;;;;;8.17;4.73;;;;;;;5.95;79.82;95602.34;5019444;28;20197;-80
2024/03/06 03:55:47;;;;;;;9.27;4.93;;;;;;;6.01;79.63;95613.09;5020081;28;20211;-80
2024/03/06 03:58:12;;;;;;;7.57;4.60;;;;;;;5.94;80.01;95611.00;5022664;28;20218;-80
2024/03/06 04:00:38;;;;;;;7.50;4.73;;;;;;;5.86;79.96;95608.16;5018920;28;20633;-80
2024/03/06 04:03:03;;;;;;;6.30;4.20;;;;;;;5.96;79.90;95618.63;5021980;28;20194;-80
2024/03/06 04:05:29;;;;;;;6.83;4.43;;;;;;;5.93;80.16;95618.84;5013672;28;20237;-80
2024/03/06 04:07:54;;;;;;;8.07;4.63;;;;;;;5.93;79.68;95626.59;5007728;28;20186;-80
2024/03/06 04:10:19;;;;;;;6.97;4.30;;;;;;;5.94;80.05;95618.75;5007782;28;20333;-80
2024/03/06 04:12:45;;;;;;;8.07;4.60;;;;;;;6.00;79.40;95620.00;5010372;28;20202;-80
2024/03/06 04:15:10;;;;;;;6.87;3.90;;;;;;;5.94;79.82;95628.22;5022613;28;20210;-80
2024/03/06 04:17:40;;;;;;;6.40;4.23;;;;;;;5.90;79.54;95626.78;5019686;28;20194;-80
2024/03/06 04:20:07;;;;;;;7.27;3.87;;;;;;;5.97;79.49;95626.22;5018533;28;20210;-81
2024/03/06 04:22:32;;;;;;;7.83;4.03;;;;;;;5.93;79.65;95632.56;5022069;28;20238;-80
2024/03/06 04:24:58;;;;;;;5.07;3.80;;;;;;;5.97;79.39;95633.97;5003472;28;20218;-80
2024/03/06 04:27:24;;;;;;;8.40;4.70;;;;;;;5.95;79.59;95633.25;5017167;28;20190;-80
2024/03/06 04:29:50;;;;;;;6.47;3.90;;;;;;;5.90;79.72;95635.34;5008017;28;20194;-80
2024/03/06 04:32:15;;;;;;;6.23;4.10;;;;;;;5.85;79.71;95634.88;5008613;28;20606;-80
2024/03/06 04:34:40;;;;;;;5.17;3.67;;;;;;;5.78;79.91;95631.13;5019967;28;20235;-79
2024/03/06 04:37:06;;;;;;;5.47;3.90;;;;;;;5.79;79.77;95634.50;5022608;28;20189;-80
2024/03/06 04:39:32;;;;;;;5.13;4.00;;;;;;;5.81;79.76;95636.03;5016686;28;20194;-80
2024/03/06 04:41:57;;;;;;;5.30;3.60;;;;;;;5.83;79.85;95648.78;5023036;28;20231;-80
2024/03/06 04:44:22;;;;;;;7.60;4.00;;;;;;;5.85;80.04;95642.59;5021544;28;20213;-80
2024/03/06 04:46:50;;;;;;;6.13;3.40;;;;;;;5.85;80.09;95644.38;5014032;28;20221;-80
2024/03/06 04:49:16;;;;;;;6.73;3.40;;;;;;;5.88;79.69;95654.44;5026209;28;20224;-80
2024/03/06 04:51:41;;;;;;;6.43;3.67;;;;;;;5.89;79.63;95658.66;5007770;28;20233;-81
2024/03/06 04:54:06;;;;;;;6.97;3.70;;;;;;;5.88;79.97;95657.00;5014078;28;20269;-80
2024/03/06 04:56:32;;;;;;;5.70;3.43;;;;;;;5.86;79.91;95661.47;5018610;28;20210;-81
2024/03/06 04:59:02;;;;;;;4.77;3.40;;;;;;;5.83;80.08;95666.81;5024211;28;20186;-81
2024/03/06 05:01:28;;;;;;;7.93;3.83;;;;;;;5.80;79.96;95667.88;5016202;28;20194;-80
2024/03/06 05:03:54;;;;;;;5.33;3.50;;;;;;;5.81;79.83;95672.09;5017316;28;20214;-80
2024/03/06 05:06:19;;;;;;;5.13;3.87;;;;;;;5.86;79.40;95677.75;5022445;28;20207;-80
2024/03/06 05:08:44;;;;;;;5.80;3.83;;;;;;;5.85;79.64;95677.88;5024711;28;20191;-80
2024/03/06 05:11:10;;;;;;;4.80;3.40;;;;;;;5.89;79.64;95674.09;5008906;28;20255;-80
2024/03/06 05:13:35;;;;;;;4.13;3.03;;;;;;;5.88;79.58;95681.03;5022546;28;20175;-80
2024/03/06 05:16:00;;;;;;;6.27;3.47;;;;;;;5.89;79.42;95685.25;5024581;28;20206;-80
2024/03/06 05:18:26;;;;;;;7.47;3.37;;;;;;;5.95;79.31;95689.97;5012317;28;20618;-80
2024/03/06 05:20:51;;;;;;;5.73;3.27;;;;;;;5.96;79.65;95689.03;5018331;28;20182;-81
2024/03/06 05:23:17;;;;;;;6.37;3.40;;;;;;;5.91;79.90;95698.03;5012181;28;20663;-81
2024/03/06 05:25:43;;;;;;;6.83;3.50;;;;;;;5.98;79.80;95694.06;5022637;28;20676;-80
2024/03/06 05:28:08;;;;;;;4.13;3.17;;;;;;;6.00;79.75;95696.53;5005235;28;20331;-80
2024/03/06 05:30:34;;;;;;;5.77;3.40;;;;;;;6.00;80.22;95699.09;5008507;28;20186;-80
2024/03/06 05:32:59;;;;;;;4.93;3.10;;;;;;;5.92;80.56;95702.28;5024146;28;20190;-80
2024/03/06 05:35:25;;;;;;;6.20;3.17;;;;;;;5.98;80.68;95699.22;5022425;28;20195;-81
2024/03/06 05:37:50;;;;;;;9.30;3.90;;;;;;;5.93;80.89;95704.75;5024634;28;20183;-80
2024/03/06 05:40:15;;;;;;;3.60;3.30;;;;;;;5.96;81.07;95704.50;5009851;28;20194;-80
2024/03/06 05:42:42;;;;;;;6.30;3.90;;;;;;;5.95;81.20;95710.59;5021656;28;21158;-80
2024/03/06 05:45:10;;;;;;;7.57;3.43;;;;;;;5.91;81.24;95709.16;5011117;28;20203;-81
2024/03/06 05:47:37;;;;;;;4.57;3.70;;;;;;;5.92;81.48;95713.41;5023575;28;20279;-80
2024/03/06 05:50:04;;;;;;;4.97;4.00;;;;;;;5.96;81.67;95714.00;5009037;28;20191;-80
2024/03/06 05:52:30;;;;;;;5.30;3.53;;;;;;;5.99;81.49;95716.31;5016941;28;20211;-80
2024/03/06 05:54:56;;;;;;;6.37;4.03;;;;;;;5.91;81.92;95718.66;5022688;28;20653;-81
2024/03/06 05:57:21;;;;;;;6.13;3.80;;;;;;;5.97;81.81;95713.06;5014247;28;20346;-81
2024/03/06 05:59:46;;;;;;;4.93;4.00;;;;;;;5.92;82.14;95728.88;5010134;28;20190;-80
2024/03/06 06:02:12;;;;;;;5.60;3.67;;;;;;;5.96;82.19;95724.31;5014465;28;20306;-81
2024/03/06 06:04:37;;;;;;;5.83;3.50;;;;;;;5.95;82.62;95727.81;5019431;28;20207;-80
2024/03/06 06:07:03;;;;;;;5.87;4.63;;;;;;;5.94;81.96;95729.56;5022574;28;20214;-80
2024/03/06 06:09:28;;;;;;;5.80;3.47;;;;;;;5.93;82.72;95734.84;5025061;28;20182;-81
2024/03/06 06:11:54;;;;;;;5.13;3.70;;;;;;;5.95;82.35;95736.38;5004564;28;20183;-80
2024/03/06 06:14:19;;;;;;;5.90;4.33;;;;;;;5.95;82.63;95736.38;5006143;28;20210;-80
2024/03/06 06:16:45;;;;;;;6.60;4.00;;;;;;;5.99;82.77;95733.56;5010436;28;20198;-80
2024/03/06 06:19:10;;;;;;;5.80;3.87;;;;;;;6.00;82.83;95733.44;5027986;28;20189;-80
2024/03/06 06:21:37;;;;;;;5.53;4.10;;;;;;;6.00;82.90;95742.91;5025763;28;20233;-80
2024/03/06 06:24:03;;;;;;;6.17;4.13;;;;;;;6.02;82.90;95746.22;5011382;28;20208;-79
2024/03/06 06:26:29;;;;;;;9.67;5.50;;;;;;;6.03;82.75;95743.53;5007876;28;20692;-80
2024/03/06 06:28:55;;;;;;;7.37;5.40;;;;;;;6.01;83.60;95748.00;5026783;28;20186;-80
2024/03/06 06:31:20;;;;;;;4.40;3.80;;;;;;;6.04;83.48;95750.31;5021959;28;20262;-81
2024/03/06 06:33:47;;;;;;;6.20;3.77;;;;;;;6.08;83.12;95750.91;5028402;28;20271;-80
2024/03/06 06:36:12;;;;;;;7.07;4.43;;;;;;;6.10;83.08;95756.78;5030713;28;20754;-81
2024/03/06 06:38:38;;;;;;;5.20;4.30;;;;;;;6.03;83.36;95758.19;5022607;28;20190;-81
2024/03/06 06:41:03;;;;;;;18.93;16.67;;;;;;;6.08;83.47;95756.88;5017644;28;20256;-82
2024/03/06 06:43:28;;;;;;;14.30;12.80;;;;;;;6.09;83.44;95760.28;5028188;28;20202;-82
2024/03/06 06:45:54;;;;;;;10.40;8.17;;;;;;;6.12;83.27;95760.06;5025109;28;20214;-82
2024/03/06 06:48:19;;;;;;;7.83;5.57;;;;;;;6.08;83.97;95763.78;5029550;28;20616;-81
2024/03/06 06:50:47;;;;;;;9.70;8.70;;;;;;;6.14;83.86;95771.91;5017942;28;20565;-81
2024/03/06 06:53:13;;;;;;;15.23;11.67;;;;;;;6.10;84.05;95774.84;5026540;28;20205;-83
2024/03/06 06:55:38;;;;;;;8.97;7.40;;;;;;;5.99;84.18;95779.94;5015028;28;20575;-84
2024/03/06 06:58:04;;;;;;;8.00;7.10;;;;;;;6.03;84.45;95773.66;5020372;28;20213;-80
2024/03/06 07:00:30;;;;;;;7.20;5.23;;;;;;;6.10;84.44;95780.00;5023118;28;20211;-81
2024/03/06 07:02:58;;;;;;;8.33;4.90;;;;;;;6.12;84.25;95776.34;5009704;28;20218;-80
2024/03/06 07:05:23;;;;;;;9.03;4.67;;;;;;;6.12;84.60;95778.94;5026435;28;20624;-81
2024/03/06 07:07:49;;;;;;;8.53;4.70;;;;;;;6.16;84.65;95772.59;5025992;28;20206;-81
2024/03/06 07:10:14;;;;;;;7.73;6.10;;;;;;;6.18;84.58;95781.06;5022313;28;20217;-81
2024/03/06 07:12:39;;;;;;;7.27;5.03;;;;;;;6.31;84.30;95777.56;5022475;28;20191;-81
2024/03/06 07:15:06;;;;;;;8.63;5.30;;;;;;;6.24;84.64;95782.34;5020486;28;20691;-81
2024/03/06 07:17:31;;;;;;;9.37;6.43;;;;;;;6.24;84.89;95784.94;5011018;28;20553;-80
2024/03/06 07:19:57;;;;;;;7.77;6.20;;;;;;;6.27;84.64;95786.44;5029970;28;20253;-80
2024/03/06 07:22:22;;;;;;;7.67;5.83;;;;;;;6.28;85.13;95786.34;5027719;28;20190;-80
2024/03/06 07:24:48;;;;;;;9.60;7.77;;;;;;;6.25;85.17;95778.81;5026677;28;20214;-81
2024/03/06 07:27:13;;;;;;;8.03;5.70;;;;;;;6.35;85.40;95778.94;5022059;28;20199;-81
2024/03/06 07:29:38;;;;;;;10.07;7.33;;;;;;;6.22;85.27;95779.06;5020389;28;20179;-81
2024/03/06 07:32:07;;;;;;;10.30;5.63;;;;;;;6.40;85.31;95790.56;5013571;28;20179;-81
2024/03/06 07:34:32;;;;;;;7.33;5.77;;;;;;;6.41;85.01;95783.66;5023436;28;20598;-81
2024/03/06 07:37:01;;;;;;;8.80;5.53;;;;;;;6.36;84.97;95789.19;5019584;28;20233;-81
2024/03/06 07:39:26;;;;;;;11.37;5.83;;;;;;;6.39;85.13;95791.50;5012267;28;20210;-80
2024/03/06 07:41:52;;;;;;;9.63;6.43;;;;;;;6.36;85.21;95796.91;5007676;28;20215;-80
2024/03/06 07:44:17;;;;;;;9.20;5.60;;;;;;;6.43;85.03;95797.25;5018916;28;20237;-81
2024/03/06 07:46:43;;;;;;;13.93;9.63;;;;;;;6.33;84.98;95804.03;5022005;28;20191;-80
2024/03/06 07:49:08;;;;;;;17.37;15.30;;;;;;;6.45;84.94;95801.38;5013810;28;20179;-80
2024/03/06 07:51:34;;;;;;;27.90;25.23;;;;;;;6.38;85.48;95802.78;5019561;28;20248;-80
2024/03/06 07:54:00;;;;;;;35.67;32.23;;;;;;;6.39;84.88;95795.84;5018756;28;20202;-81
2024/03/06 07:56:26;;;;;;;23.60;21.40;;;;;;;6.49;85.05;95800.19;5021386;28;20242;-81
2024/03/06 07:58:51;;;;;;;25.03;21.73;;;;;;;6.49;84.90;95810.50;5011175;28;20183;-81
2024/03/06 08:01:17;;;;;;;9.57;7.37;;;;;;;6.37;85.19;95798.56;5013322;28;20229;-81
2024/03/06 08:03:43;;;;;;;10.43;9.03;;;;;;;6.46;85.26;95809.94;5014187;28;20199;-81
2024/03/06 08:06:09;;;;;;;10.50;8.00;;;;;;;6.38;85.87;95814.84;5014219;28;20213;-82
2024/03/06 08:08:34;;;;;;;12.73;8.80;;;;;;;6.46;85.21;95809.94;5023204;28;20548;-82
2024/03/06 08:11:00;;;;;;;11.83;8.30;;;;;;;6.45;85.32;95816.03;5022139;28;20198;-82
2024/03/06 08:13:25;;;;;;;70.13;34.87;;;;;;;6.33;84.81;95817.75;5023342;28;20182;-81
2024/03/06 08:15:51;;;;;;;137.10;64.27;;;;;;;6.42;85.07;95814.50;5015821;28;20718;-82
2024/03/06 08:18:16;;;;;;;28.70;17.10;;;;;;;6.43;85.15;95810.97;5013894;28;20771;-82
2024/03/06 08:20:42;;;;;;;12.13;8.80;;;;;;;6.44;85.73;95820.34;5016251;28;20193;-81
2024/03/06 08:23:09;;;;;;;8.13;6.53;;;;;;;6.40;85.27;95825.88;5025152;28;20202;-82
2024/03/06 08:25:35;;;;;;;8.70;5.53;;;;;;;6.48;85.28;95826.94;5014637;28;20207;-81
2024/03/06 08:28:00;;;;;;;7.00;5.67;;;;;;;6.23;86.30;95830.53;5017517;28;20199;-82
2024/03/06 08:30:25;;;;;;;6.73;5.27;;;;;;;6.48;86.29;95824.34;5008457;28;21021;-82
2024/03/06 08:32:51;;;;;;;7.60;5.57;;;;;;;6.58;85.87;95832.22;5019493;28;20211;-81
2024/03/06 08:35:18;;;;;;;6.43;5.07;;;;;;;6.49;86.05;95827.75;5001917;28;20206;-81
2024/03/06 08:37:43;;;;;;;7.67;5.07;;;;;;;6.46;86.34;95838.31;5021187;28;20190;-81
2024/03/06 08:40:17;;;;;;;7.10;6.13;;;;;;;6.36;86.81;95833.03;5022538;28;20578;-81
2024/03/06 08:42:47;;;;;;;14.63;8.50;;;;;;;6.32;87.14;95834.19;5019474;28;20210;-82
2024/03/06 08:45:12;;;;;;;8.50;7.70;;;;;;;6.44;87.60;95833.25;5007294;28;20253;-79
2024/03/06 08:47:38;;;;;;;15.10;11.13;;;;;;;6.56;86.70;95848.75;5014532;28;20669;-80
2024/03/06 08:50:03;;;;;;;20.07;14.53;;;;;;;6.61;86.89;95841.47;5010646;28;20275;-79
2024/03/06 08:52:30;;;;;;;15.10;11.50;;;;;;;6.54;87.16;95843.72;5022220;28;20222;-79
2024/03/06 08:54:56;;;;;;;10.30;9.13;;;;;;;6.75;86.95;95849.00;5007191;28;20199;-79
2024/03/06 08:57:22;;;;;;;10.80;8.83;;;;;;;6.81;86.37;95846.78;5020510;28;20193;-79
2024/03/06 08:59:47;;;;;;;11.93;8.17;;;;;;;6.82;86.55;95850.19;5008415;28;20723;-79
2024/03/06 09:02:14;;;;;;;12.60;9.03;;;;;;;6.86;86.54;95846.41;5018783;28;20237;-79
2024/03/06 09:04:41;;;;;;;9.97;8.20;;;;;;;6.93;87.05;95857.94;5017725;28;20207;-79
2024/03/06 09:07:07;;;;;;;9.47;7.87;;;;;;;7.11;86.42;95853.09;5010898;28;20716;-79
2024/03/06 09:09:33;;;;;;;10.03;8.33;;;;;;;7.23;86.06;95853.91;5023374;28;20195;-79
2024/03/06 09:12:00;;;;;;;8.73;7.57;;;;;;;7.01;86.07;95850.41;5020824;28;20319;-79
2024/03/06 09:14:25;;;;;;;8.97;7.30;;;;;;;6.78;86.58;95848.75;5013094;28;20182;-78
2024/03/06 09:16:50;;;;;;;10.07;7.57;;;;;;;6.89;86.44;95855.69;5023768;28;20183;-79
2024/03/06 09:19:16;;;;;;;10.97;8.00;;;;;;;6.90;86.42;95862.50;5011842;28;20205;-78
2024/03/06 09:21:41;;;;;;;9.87;7.10;;;;;;;6.73;86.81;95861.22;5022046;28;20183;-78
2024/03/06 09:24:07;;;;;;;10.63;7.40;;;;;;;6.72;87.17;95862.97;5025077;28;20198;-78
2024/03/06 09:26:33;;;;;;;8.73;7.17;;;;;;;6.84;86.23;95858.63;5014837;28;20206;-79
2024/03/06 09:28:58;;;;;;;8.97;6.93;;;;;;;6.55;86.45;95862.59;5019020;28;20187;-79
2024/03/06 09:31:24;;;;;;;7.97;6.07;;;;;;;6.74;86.89;95862.84;5012508;28;20286;-78
2024/03/06 09:33:50;;;;;;;8.77;6.67;;;;;;;6.59;87.56;95875.16;5009279;28;20194;-80
2024/03/06 09:36:15;;;;;;;7.27;6.57;;;;;;;6.50;87.50;95870.69;5023051;28;20220;-79
2024/03/06 09:38:41;;;;;;;8.57;7.53;;;;;;;6.66;86.77;95880.69;5017071;28;20179;-78
2024/03/06 09:41:07;;;;;;;13.17;8.23;;;;;;;6.79;86.81;95881.38;5020667;28;20252;-79
2024/03/06 09:43:33;;;;;;;14.87;8.90;;;;;;;6.67;86.93;95879.72;5021514;28;20187;-79
2024/03/06 09:45:58;;;;;;;13.10;8.37;;;;;;;6.52;88.01;95881.69;5009474;28;20209;-80
2024/03/06 09:48:24;;;;;;;10.97;8.27;;;;;;;6.65;87.66;95881.63;5013518;28;20696;-80
2024/03/06 09:50:50;;;;;;;10.57;8.53;;;;;;;6.78;86.97;95882.31;5021127;28;20195;-79
2024/03/06 09:53:16;;;;;;;13.53;9.20;;;;;;;6.60;87.95;95878.53;5023897;28;20194;-80
2024/03/06 09:55:42;;;;;;;12.07;8.63;;;;;;;6.45;88.29;95878.78;5018598;28;20218;-79
2024/03/06 09:58:08;;;;;;;16.73;9.83;;;;;;;6.38;88.65;95887.91;5020775;28;20645;-80
2024/03/06 10:00:35;;;;;;;16.57;9.77;;;;;;;6.51;88.92;95878.28;5004968;28;20194;-79
2024/03/06 10:03:03;;;;;;;13.07;10.40;;;;;;;6.53;88.86;95885.91;5002591;28;20191;-78
2024/03/06 10:05:30;;;;;;;11.93;10.70;;;;;;;6.75;88.07;95885.16;5019730;28;20727;-79
2024/03/06 10:07:55;;;;;;;13.97;11.00;;;;;;;6.72;87.90;95888.78;5012241;28;20186;-78
2024/03/06 10:10:22;;;;;;;12.40;10.00;;;;;;;6.27;89.19;95885.25;5013757;28;20259;-79
2024/03/06 10:12:48;;;;;;;14.83;10.63;;;;;;;6.61;88.47;95886.16;5016821;28;20186;-78
2024/03/06 10:15:14;;;;;;;29.53;20.37;;;;;;;6.50;88.25;95881.00;5023653;28;20207;-78
2024/03/06 10:17:39;;;;;;;17.07;15.27;;;;;;;6.87;87.86;95889.38;5006779;28;20680;-81
2024/03/06 10:20:25;;;;;;;22.23;16.33;;;;;;;6.76;88.81;95899.69;5018133;28;20190;-79
2024/03/06 10:22:52;;;;;;;25.53;23.00;;;;;;;6.62;88.23;95884.41;5001062;28;20195;-79
2024/03/06 10:25:21;;;;;;;48.10;43.73;;;;;;;6.76;88.14;95894.53;5000892;28;20236;-79
2024/03/06 10:28:06;;;;;;;17.53;15.57;;;;;;;6.69;87.79;95894.16;5006468;28;20190;-78
2024/03/06 10:30:36;;;;;;;18.60;14.37;;;;;;;6.46;87.98;95885.56;5013346;28;20237;-79
2024/03/06 10:33:07;;;;;;;13.10;10.97;;;;;;;6.34;89.30;95894.19;5017376;28;20193;-78
2024/03/06 10:35:33;;;;;;;15.40;12.17;;;;;;;6.46;88.90;95889.91;5021564;28;20238;-79
2024/03/06 10:38:02;;;;;;;13.80;10.57;;;;;;;6.65;88.32;95899.69;5004526;28;20218;-79
2024/03/06 10:40:31;;;;;;;11.53;9.97;;;;;;;6.36;88.64;95891.50;5016004;28;20191;-79
2024/03/06 10:42:57;;;;;;;14.53;12.93;;;;;;;6.73;88.03;95897.34;5020650;28;20191;-79
2024/03/06 10:45:39;;;;;;;15.40;12.57;;;;;;;6.70;88.28;95893.22;5017483;28;20214;-79
2024/03/06 10:48:05;;;;;;;13.03;11.10;;;;;;;6.46;88.19;95895.91;5018400;28;20179;-80
2024/03/06 10:50:32;;;;;;;15.60;11.43;;;;;;;6.59;87.59;95902.72;5012700;28;20187;-79
2024/03/06 10:52:57;;;;;;;15.17;10.63;;;;;;;6.63;87.47;95896.41;5021596;28;20619;-78
2024/03/06 10:55:24;;;;;;;12.83;9.57;;;;;;;6.63;88.01;95906.72;5020359;28;20284;-79
2024/03/06 10:57:52;;;;;;;11.57;9.20;;;;;;;6.72;87.01;95903.44;5000967;28;20183;-79
2024/03/06 11:00:19;;;;;;;17.93;11.23;;;;;;;6.60;87.90;95896.59;5003407;28;20201;-78
2024/03/06 11:02:47;;;;;;;12.07;10.37;;;;;;;6.82;87.53;95904.41;5018072;28;20217;-78
2024/03/06 11:05:14;;;;;;;15.43;9.07;;;;;;;6.81;87.68;95901.00;5016386;28;20223;-79
2024/03/06 11:07:39;;;;;;;11.13;8.47;;;;;;;6.88;87.24;95901.34;5022083;28;20191;-78
2024/03/06 11:10:05;;;;;;;10.87;8.20;;;;;;;6.90;87.54;95901.25;5009825;28;20210;-79
2024/03/06 11:12:41;;;;;;;12.50;8.73;;;;;;;6.64;87.67;95893.69;5019144;28;20208;-79
2024/03/06 11:15:24;;;;;;;9.57;8.43;;;;;;;6.86;87.73;95899.81;5023742;28;20285;-79
2024/03/06 11:17:50;;;;;;;9.83;8.07;;;;;;;6.95;87.20;95896.53;5022913;28;20222;-82
2024/03/06 11:20:19;;;;;;;10.37;9.23;;;;;;;6.82;87.36;95894.06;5013610;28;20214;-80
2024/03/06 11:23:02;;;;;;;14.27;9.73;;;;;;;6.90;86.63;95893.50;5024886;28;20191;-79
2024/03/06 11:25:50;;;;;;;11.20;10.00;;;;;;;7.03;86.79;95899.34;5024605;28;20218;-81
2024/03/06 11:28:20;;;;;;;14.07;11.63;;;;;;;6.98;86.38;95897.13;5029663;28;20274;-85
2024/03/06 11:30:54;;;;;;;14.00;11.57;;;;;;;6.93;86.08;95895.84;5010956;28;20199;-80
2024/03/06 11:33:20;;;;;;;15.23;11.67;;;;;;;7.19;86.58;95893.84;5008017;28;20190;-80